createdAt,value
2018-10-19T00:01:16.307Z,13.70
2018-10-19T00:03:44.664Z,13.80
2018-10-19T00:06:13.035Z,13.80
2018-10-19T00:08:41.443Z,13.80
2018-10-19T00:11:10.222Z,13.70
2018-10-19T00:13:38.509Z,13.70
2018-10-19T00:16:06.912Z,13.60
2018-10-19T00:18:35.298Z,13.60
2018-10-19T00:21:03.734Z,13.50
2018-10-19T00:23:32.092Z,13.50
2018-10-19T00:26:00.734Z,13.50
2018-10-19T00:28:29.144Z,13.50
2018-10-19T00:30:57.536Z,13.50
2018-10-19T00:33:25.940Z,13.60
2018-10-19T00:35:54.292Z,13.60
2018-10-19T00:38:22.667Z,13.60
2018-10-19T00:40:51.282Z,13.70
2018-10-19T00:43:19.661Z,13.70
2018-10-19T00:45:48.083Z,13.70
2018-10-19T00:48:17.594Z,13.70
2018-10-19T00:50:45.966Z,13.70
2018-10-19T00:53:14.805Z,13.70
2018-10-19T00:55:43.087Z,13.80
2018-10-19T00:58:11.469Z,13.80
2018-10-19T01:00:40.952Z,13.70
2018-10-19T01:03:09.890Z,13.80
2018-10-19T01:05:39.310Z,13.80
2018-10-19T01:08:08.441Z,13.80
2018-10-19T01:10:36.838Z,13.80
2018-10-19T01:13:05.518Z,13.80
2018-10-19T01:15:33.938Z,13.80
2018-10-19T01:18:02.306Z,13.80
2018-10-19T01:20:30.953Z,13.80
2018-10-19T01:22:59.367Z,13.70
2018-10-19T01:25:27.754Z,13.70
2018-10-19T01:27:56.299Z,13.70
2018-10-19T01:30:24.708Z,13.70
2018-10-19T01:32:53.411Z,13.70
2018-10-19T01:35:21.786Z,13.70
2018-10-19T01:37:50.165Z,13.70
2018-10-19T01:40:18.537Z,13.70
2018-10-19T01:42:46.915Z,13.70
2018-10-19T01:45:15.434Z,13.70
2018-10-19T01:47:44.355Z,13.70
2018-10-19T01:50:12.702Z,13.60
2018-10-19T01:52:41.380Z,13.60
2018-10-19T01:55:09.809Z,13.60
2018-10-19T01:57:38.190Z,13.60
2018-10-19T02:00:07.287Z,13.60
2018-10-19T02:02:35.704Z,13.60
2018-10-19T02:05:04.166Z,13.60
2018-10-19T02:07:32.559Z,13.60
2018-10-19T02:10:00.913Z,13.70
2018-10-19T02:12:29.283Z,13.60
2018-10-19T02:14:58.098Z,13.60
2018-10-19T02:17:26.454Z,13.60
2018-10-19T02:19:54.824Z,13.70
2018-10-19T02:22:23.201Z,13.70
2018-10-19T02:24:51.542Z,13.70
2018-10-19T02:27:19.956Z,13.60
2018-10-19T02:29:48.361Z,13.60
2018-10-19T02:32:16.733Z,13.60
2018-10-19T02:34:45.394Z,13.60
2018-10-19T02:37:13.774Z,13.60
2018-10-19T02:39:42.132Z,13.50
2018-10-19T02:42:10.500Z,13.60
2018-10-19T02:44:38.899Z,13.60
2018-10-19T02:47:07.359Z,13.50
2018-10-19T02:49:35.668Z,13.50
2018-10-19T02:52:04.100Z,13.50
2018-10-19T02:54:32.741Z,13.50
2018-10-19T02:57:01.185Z,13.50
2018-10-19T02:59:29.807Z,13.40
2018-10-19T03:01:58.196Z,13.40
2018-10-19T03:04:26.551Z,13.40
2018-10-19T03:06:54.953Z,13.40
2018-10-19T03:09:23.304Z,13.30
2018-10-19T03:11:51.669Z,13.30
2018-10-19T03:14:20.399Z,13.30
2018-10-19T03:16:49.085Z,13.30
2018-10-19T03:19:17.503Z,13.30
2018-10-19T03:21:45.872Z,13.30
2018-10-19T03:24:14.322Z,13.30
2018-10-19T03:26:42.696Z,13.30
2018-10-19T03:29:11.612Z,13.30
2018-10-19T03:31:39.951Z,13.20
2018-10-19T03:34:08.350Z,13.20
2018-10-19T03:36:36.793Z,13.20
2018-10-19T03:39:06.981Z,13.20
2018-10-19T03:41:35.372Z,13.10
2018-10-19T03:44:03.763Z,13.10
2018-10-19T03:46:32.137Z,13.20
2018-10-19T03:49:00.894Z,13.20
2018-10-19T03:51:29.263Z,13.20
2018-10-19T03:53:57.853Z,13.20
2018-10-19T03:56:26.204Z,13.10
2018-10-19T03:58:54.636Z,13.10
2018-10-19T04:01:22.976Z,13.00
2018-10-19T04:03:51.355Z,13.00
2018-10-19T04:06:19.764Z,12.90
2018-10-19T04:08:48.158Z,13.00
2018-10-19T04:11:16.551Z,13.00
2018-10-19T04:13:44.912Z,13.00
2018-10-19T04:16:13.276Z,13.00
2018-10-19T04:18:41.657Z,13.00
2018-10-19T04:21:10.133Z,13.00
2018-10-19T04:23:38.436Z,13.00
2018-10-19T04:26:07.305Z,13.00
2018-10-19T04:28:35.697Z,12.90
2018-10-19T04:31:04.097Z,12.90
2018-10-19T04:33:32.466Z,12.90
2018-10-19T04:36:00.855Z,12.90
2018-10-19T04:38:29.240Z,12.90
2018-10-19T04:40:57.637Z,12.90
2018-10-19T04:43:26.009Z,12.80
2018-10-19T04:45:54.437Z,12.90
2018-10-19T04:48:22.808Z,12.90
2018-10-19T04:50:51.208Z,12.80
2018-10-19T04:53:19.718Z,12.80
2018-10-19T04:55:48.012Z,12.80
2018-10-19T04:58:16.391Z,12.80
2018-10-19T05:00:44.781Z,12.80
2018-10-19T05:03:13.362Z,12.80
2018-10-19T05:05:41.635Z,12.80
2018-10-19T05:08:10.037Z,12.70
2018-10-19T05:10:38.416Z,12.70
2018-10-19T05:13:06.908Z,12.70
2018-10-19T05:15:35.256Z,12.70
2018-10-19T05:18:03.640Z,12.60
2018-10-19T05:20:32.023Z,12.60
2018-10-19T05:23:00.418Z,12.60
2018-10-19T05:25:28.779Z,12.60
2018-10-19T05:27:57.156Z,12.60
2018-10-19T05:30:25.557Z,12.70
2018-10-19T05:32:54.012Z,12.70
2018-10-19T05:35:22.397Z,12.70
2018-10-19T05:37:51.041Z,12.60
2018-10-19T05:40:19.412Z,12.60
2018-10-19T05:42:47.823Z,12.60
2018-10-19T05:45:16.190Z,12.60
2018-10-19T05:47:44.856Z,12.50
2018-10-19T05:50:13.359Z,12.50
2018-10-19T05:52:41.666Z,12.50
2018-10-19T05:55:10.742Z,12.50
2018-10-19T05:57:39.133Z,12.40
2018-10-19T06:00:09.239Z,12.40
2018-10-19T06:02:37.632Z,12.50
2018-10-19T06:05:06.759Z,12.40
2018-10-19T06:07:35.107Z,12.40
2018-10-19T06:10:03.665Z,12.30
2018-10-19T06:12:32.068Z,12.30
2018-10-19T06:15:00.434Z,12.20
2018-10-19T06:17:28.795Z,12.20
2018-10-19T06:19:57.294Z,12.10
2018-10-19T06:22:25.837Z,12.10
2018-10-19T06:24:54.207Z,12.10
2018-10-19T06:27:22.944Z,12.00
2018-10-19T06:31:40.607Z,12.00
2018-10-19T06:34:09.410Z,11.90
2018-10-19T06:36:38.057Z,11.90
2018-10-19T06:39:08.790Z,11.90
2018-10-19T06:41:37.294Z,11.90
2018-10-19T06:44:05.944Z,11.80
2018-10-19T06:46:34.341Z,12.00
2018-10-19T06:49:02.809Z,12.00
2018-10-19T06:51:31.431Z,12.00
2018-10-19T06:53:59.813Z,12.00
2018-10-19T06:56:28.401Z,12.10
2018-10-19T06:58:56.887Z,12.20
2018-10-19T07:01:25.259Z,12.20
2018-10-19T07:03:53.758Z,12.20
2018-10-19T07:06:22.154Z,12.10
2018-10-19T07:08:50.529Z,12.20
2018-10-19T07:11:18.925Z,12.20
2018-10-19T07:13:47.329Z,12.30
2018-10-19T07:16:15.700Z,12.30
2018-10-19T07:18:44.237Z,12.30
2018-10-19T07:21:12.817Z,12.30
2018-10-19T07:23:41.551Z,12.30
2018-10-19T07:26:10.002Z,12.40
2018-10-19T07:28:38.358Z,12.40
2018-10-19T07:31:06.757Z,12.40
2018-10-19T07:33:35.155Z,12.30
2018-10-19T07:36:03.532Z,12.30
2018-10-19T07:38:31.888Z,12.30
2018-10-19T07:41:00.328Z,12.30
2018-10-19T07:43:28.898Z,12.40
2018-10-19T07:45:57.585Z,12.50
2018-10-19T07:48:26.035Z,12.50
2018-10-19T07:50:54.382Z,12.50
2018-10-19T07:53:22.749Z,12.60
2018-10-19T07:55:51.131Z,12.70
2018-10-19T07:58:19.517Z,12.80
2018-10-19T08:00:48.921Z,12.80
2018-10-19T08:03:17.314Z,12.80
2018-10-19T08:05:45.689Z,12.80
2018-10-19T08:08:14.339Z,12.90
2018-10-19T08:10:42.757Z,13.00
2018-10-19T08:13:11.151Z,13.10
2018-10-19T08:15:39.700Z,13.10
2018-10-19T08:18:08.109Z,13.00
2018-10-19T08:20:36.507Z,13.00
2018-10-19T08:23:05.485Z,13.20
2018-10-19T08:25:34.140Z,13.20
2018-10-19T08:28:02.634Z,13.10
2018-10-19T08:30:31.211Z,13.00
2018-10-19T08:32:59.621Z,13.10
2018-10-19T08:35:28.005Z,13.20
2018-10-19T08:37:56.398Z,13.20
2018-10-19T08:40:25.041Z,13.20
2018-10-19T08:42:53.459Z,13.50
2018-10-19T08:45:22.408Z,13.50
2018-10-19T08:47:50.829Z,13.70
2018-10-19T08:50:19.470Z,13.70
2018-10-19T08:52:47.839Z,13.80
2018-10-19T08:55:16.301Z,13.90
2018-10-19T08:57:44.741Z,13.90
2018-10-19T09:00:13.476Z,13.90
2018-10-19T09:02:41.858Z,13.90
2018-10-19T09:05:10.261Z,13.90
2018-10-19T09:07:38.757Z,14.00
2018-10-19T09:10:07.979Z,13.90
2018-10-19T09:12:36.449Z,14.00
2018-10-19T09:15:05.672Z,14.10
2018-10-19T09:17:34.151Z,14.00
2018-10-19T09:20:03.160Z,14.00
2018-10-19T09:22:31.806Z,14.20
2018-10-19T09:25:00.183Z,14.10
2018-10-19T09:27:28.560Z,14.40
2018-10-19T09:29:56.936Z,14.60
2018-10-19T09:32:25.323Z,14.80
2018-10-19T09:34:53.684Z,14.80
2018-10-19T09:37:22.087Z,14.80
2018-10-19T09:39:50.476Z,14.60
2018-10-19T09:42:18.861Z,14.60
2018-10-19T09:44:47.227Z,14.60
2018-10-19T09:47:16.048Z,14.40
2018-10-19T09:49:44.356Z,14.50
2018-10-19T09:52:12.744Z,14.60
2018-10-19T09:54:41.150Z,14.70
2018-10-19T09:57:09.591Z,14.90
2018-10-19T09:59:38.428Z,14.90
2018-10-19T10:02:06.868Z,15.00
2018-10-19T10:04:35.461Z,15.10
2018-10-19T10:07:04.277Z,15.10
2018-10-19T10:09:32.882Z,15.00
2018-10-19T10:12:01.264Z,14.90
2018-10-19T10:14:29.644Z,15.00
2018-10-19T10:16:58.092Z,15.00
2018-10-19T10:19:26.421Z,15.00
2018-10-19T10:21:54.838Z,15.00
2018-10-19T10:24:23.226Z,15.00
2018-10-19T10:26:51.659Z,14.90
2018-10-19T10:29:20.531Z,15.00
2018-10-19T10:31:49.237Z,15.00
2018-10-19T10:34:17.674Z,14.90
2018-10-19T10:36:46.021Z,15.00
2018-10-19T10:39:14.949Z,15.00
2018-10-19T10:41:43.176Z,15.00
2018-10-19T10:44:11.573Z,15.10
2018-10-19T10:46:39.999Z,15.20
2018-10-19T10:49:08.801Z,15.30
2018-10-19T10:51:37.185Z,15.30
2018-10-19T10:54:05.941Z,15.40
2018-10-19T10:56:34.772Z,15.60
2018-10-19T10:59:03.158Z,15.90
2018-10-19T11:01:31.556Z,16.00
2018-10-19T11:04:00.326Z,16.00
2018-10-19T11:06:28.644Z,16.00
2018-10-19T11:08:57.276Z,16.20
2018-10-19T11:11:25.761Z,16.00
2018-10-19T11:13:54.154Z,16.00
2018-10-19T11:16:22.773Z,16.00
2018-10-19T11:18:51.116Z,16.10
2018-10-19T11:21:19.507Z,16.20
2018-10-19T11:23:47.914Z,16.00
2018-10-19T11:26:16.535Z,16.10
2018-10-19T11:28:44.948Z,16.10
2018-10-19T11:31:13.424Z,16.30
2018-10-19T11:33:41.768Z,16.30
2018-10-19T11:36:10.154Z,16.40
2018-10-19T11:38:38.568Z,16.40
2018-10-19T11:41:06.955Z,16.50
2018-10-19T11:43:35.340Z,16.70
2018-10-19T11:46:03.787Z,16.90
2018-10-19T11:48:32.130Z,16.80
2018-10-19T11:51:01.199Z,16.80
2018-10-19T11:53:29.605Z,16.80
2018-10-19T11:55:57.982Z,16.90
2018-10-19T11:58:26.341Z,17.10
2018-10-19T12:00:55.127Z,17.30
2018-10-19T12:03:23.511Z,17.50
2018-10-19T12:05:51.889Z,17.70
2018-10-19T12:08:20.311Z,17.70
2018-10-19T12:10:48.722Z,17.40
2018-10-19T12:13:17.353Z,17.30
2018-10-19T12:15:45.722Z,17.40
2018-10-19T12:18:14.069Z,17.50
2018-10-19T12:20:42.443Z,17.40
2018-10-19T12:23:10.930Z,17.40
2018-10-19T12:25:39.294Z,17.60
2018-10-19T12:28:07.661Z,17.90
2018-10-19T12:30:36.051Z,18.00
2018-10-19T12:33:04.721Z,17.90
2018-10-19T12:35:33.202Z,17.70
2018-10-19T12:38:01.532Z,17.70
2018-10-19T12:40:30.145Z,17.80
2018-10-19T12:42:58.536Z,17.70
2018-10-19T12:46:39.476Z,17.80
2018-10-19T12:49:08.417Z,17.90
2018-10-19T12:51:37.023Z,18.00
2018-10-19T12:54:06.005Z,18.00
2018-10-19T12:56:34.354Z,18.10
2018-10-19T12:59:02.727Z,18.30
2018-10-19T13:01:31.692Z,18.50
2018-10-19T13:04:00.863Z,18.80
2018-10-19T13:06:29.266Z,19.00
2018-10-19T13:08:57.830Z,19.30
2018-10-19T13:11:26.522Z,19.30
2018-10-19T13:13:54.995Z,19.50
2018-10-19T13:16:23.936Z,19.60
2018-10-19T13:18:52.673Z,19.70
2018-10-19T13:21:21.034Z,20.10
2018-10-19T13:23:49.432Z,20.10
2018-10-19T13:26:17.799Z,20.20
2018-10-19T13:28:46.177Z,20.10
2018-10-19T13:31:14.568Z,20.10
2018-10-19T13:33:42.964Z,19.60
2018-10-19T13:36:11.397Z,19.20
2018-10-19T13:38:39.741Z,19.10
2018-10-19T13:41:08.676Z,18.60
2018-10-19T13:43:37.185Z,18.40
2018-10-19T13:46:05.779Z,18.20
2018-10-19T13:48:34.259Z,18.00
2018-10-19T13:51:02.715Z,17.80
2018-10-19T13:53:31.226Z,17.60
2018-10-19T13:56:00.074Z,17.60
2018-10-19T13:58:28.524Z,17.60
2018-10-19T14:00:57.048Z,17.60
2018-10-19T14:03:25.427Z,17.60
2018-10-19T14:05:54.016Z,17.60
2018-10-19T14:08:22.399Z,17.80
2018-10-19T14:10:50.767Z,17.80
2018-10-19T14:13:19.209Z,18.00
2018-10-19T14:15:47.612Z,18.10
2018-10-19T14:18:16.238Z,18.30
2018-10-19T14:20:44.857Z,18.50
2018-10-19T14:23:13.307Z,18.50
2018-10-19T14:25:41.692Z,18.50
2018-10-19T14:28:10.398Z,18.60
2018-10-19T14:30:39.116Z,18.50
2018-10-19T14:33:07.532Z,18.50
2018-10-19T14:35:35.922Z,18.30
2018-10-19T14:38:04.560Z,18.10
2018-10-19T14:40:32.940Z,17.90
2018-10-19T14:43:01.329Z,17.70
2018-10-19T14:45:29.723Z,17.70
2018-10-19T14:47:58.312Z,17.70
2018-10-19T14:50:26.666Z,17.70
2018-10-19T14:52:55.147Z,17.70
2018-10-19T14:55:23.551Z,17.70
2018-10-19T14:57:51.928Z,17.60
2018-10-19T15:00:20.587Z,17.70
2018-10-19T15:02:48.942Z,17.60
2018-10-19T15:05:18.755Z,17.60
2018-10-19T15:07:47.258Z,17.60
2018-10-19T15:10:17.637Z,17.70
2018-10-19T15:12:45.808Z,17.60
2018-10-19T15:15:18.026Z,17.60
2018-10-19T15:17:46.821Z,17.60
2018-10-19T15:20:15.716Z,17.60
2018-10-19T15:22:44.494Z,17.50
2018-10-19T15:25:13.055Z,17.40
2018-10-19T15:27:42.768Z,17.40
2018-10-19T15:30:12.698Z,17.40
2018-10-19T15:32:41.273Z,17.30
2018-10-19T15:35:10.022Z,17.20
2018-10-19T15:37:38.576Z,17.20
2018-10-19T15:40:08.236Z,17.20
2018-10-19T15:42:36.811Z,17.20
2018-10-19T15:45:07.025Z,17.20
2018-10-19T15:47:35.364Z,17.20
2018-10-19T15:50:04.153Z,17.10
2018-10-19T15:52:32.569Z,17.10
2018-10-19T15:55:00.981Z,17.10
2018-10-19T15:57:29.628Z,17.00
2018-10-19T15:59:58.022Z,17.00
2018-10-19T16:02:26.362Z,16.90
2018-10-19T16:04:54.727Z,16.90
2018-10-19T16:07:23.426Z,16.90
2018-10-19T16:09:51.793Z,16.90
2018-10-19T16:12:20.223Z,16.90
2018-10-19T16:14:48.649Z,16.90
2018-10-19T16:17:17.712Z,16.80
2018-10-19T16:19:46.100Z,16.80
2018-10-19T16:22:14.554Z,16.70
2018-10-19T16:24:42.981Z,16.70
2018-10-19T16:27:11.547Z,16.70
2018-10-19T16:29:39.817Z,16.60
2018-10-19T16:32:08.197Z,16.50
2018-10-19T16:34:36.639Z,16.50
2018-10-19T16:37:05.320Z,16.50
2018-10-19T16:39:33.672Z,16.50
2018-10-19T16:42:02.139Z,16.50
2018-10-19T16:44:30.500Z,16.50
2018-10-19T16:46:58.928Z,16.40
2018-10-19T16:49:27.359Z,16.40
2018-10-19T16:51:55.759Z,16.40
2018-10-19T16:54:24.151Z,16.30
2018-10-19T16:56:52.551Z,16.30
2018-10-19T16:59:20.941Z,16.30
2018-10-19T17:01:49.314Z,16.30
2018-10-19T17:04:17.736Z,16.30
2018-10-19T17:06:46.148Z,16.30
2018-10-19T17:09:14.876Z,16.20
2018-10-19T17:11:43.657Z,16.20
2018-10-19T17:14:12.272Z,16.10
2018-10-19T17:16:40.698Z,16.10
2018-10-19T17:19:09.655Z,16.10
2018-10-19T17:21:38.042Z,16.10
2018-10-19T17:24:06.679Z,16.00
2018-10-19T17:26:35.276Z,16.00
2018-10-19T17:29:04.256Z,15.90
2018-10-19T17:31:33.248Z,15.90
2018-10-19T17:34:01.671Z,15.90
2018-10-19T17:36:30.104Z,15.90
2018-10-19T17:38:58.492Z,15.90
2018-10-19T17:41:26.859Z,15.90
2018-10-19T17:43:55.277Z,15.90
2018-10-19T17:46:23.676Z,15.90
2018-10-19T17:48:52.987Z,15.90
2018-10-19T17:51:21.386Z,15.90
2018-10-19T17:53:50.212Z,15.90
2018-10-19T17:56:18.771Z,15.90
2018-10-19T17:58:47.294Z,15.90
2018-10-19T18:01:15.708Z,15.80
2018-10-19T18:03:44.112Z,15.80
2018-10-19T18:06:12.590Z,15.90
2018-10-19T18:08:41.029Z,15.80
2018-10-19T18:11:09.556Z,15.80
2018-10-19T18:13:37.945Z,15.80
2018-10-19T18:16:06.556Z,15.70
2018-10-19T18:18:35.498Z,15.70
2018-10-19T18:21:04.249Z,15.70
2018-10-19T18:23:32.688Z,15.60
2018-10-19T18:26:01.192Z,15.60
2018-10-19T18:28:29.855Z,15.60
2018-10-19T18:30:58.283Z,15.70
2018-10-19T18:33:26.616Z,15.60
2018-10-19T18:35:55.073Z,15.60
2018-10-19T18:38:23.650Z,15.60
2018-10-19T18:40:52.152Z,15.50
2018-10-19T18:43:20.571Z,15.50
2018-10-19T18:45:49.260Z,15.50
2018-10-19T18:48:17.628Z,15.50
2018-10-19T18:50:46.057Z,15.50
2018-10-19T18:53:14.457Z,15.50
2018-10-19T18:55:43.044Z,15.50
2018-10-19T18:58:11.467Z,15.40
2018-10-19T19:00:39.858Z,15.40
2018-10-19T19:03:08.636Z,15.40
2018-10-19T19:05:37.033Z,15.40
2018-10-19T19:08:05.461Z,15.40
2018-10-19T19:10:33.782Z,15.40
2018-10-19T19:13:07.413Z,15.30
2018-10-19T19:15:35.813Z,15.40
2018-10-19T19:18:04.201Z,15.30
2018-10-19T19:20:32.625Z,15.30
2018-10-19T19:23:01.055Z,15.30
2018-10-19T19:25:34.682Z,15.20
2018-10-19T19:28:03.122Z,15.20
2018-10-19T19:30:31.505Z,15.10
2018-10-19T19:33:05.173Z,15.00
2018-10-19T19:35:33.559Z,15.00
2018-10-19T19:38:02.427Z,14.90
2018-10-19T19:40:35.014Z,14.90
2018-10-19T19:43:03.442Z,14.90
2018-10-19T19:45:31.829Z,14.80
2018-10-19T19:48:05.523Z,14.80
2018-10-19T19:50:33.954Z,14.80
2018-10-19T19:53:02.356Z,14.70
2018-10-19T19:55:30.752Z,14.60
2018-10-19T19:57:59.217Z,14.60
2018-10-19T20:00:27.593Z,14.50
2018-10-19T20:02:56.009Z,14.40
2018-10-19T20:05:24.407Z,14.40
2018-10-19T20:07:52.806Z,14.40
2018-10-19T20:10:21.228Z,14.40
2018-10-19T20:12:49.600Z,14.40
2018-10-19T20:15:18.248Z,14.40
2018-10-19T20:17:46.654Z,14.30
2018-10-19T20:20:15.371Z,14.30
2018-10-19T20:22:43.945Z,14.20
2018-10-19T20:25:12.837Z,14.10
2018-10-19T20:27:41.702Z,14.10
2018-10-19T20:30:11.839Z,14.00
2018-10-19T20:32:40.441Z,14.00
2018-10-19T20:35:09.176Z,14.00
2018-10-19T20:37:37.951Z,13.90
2018-10-19T20:40:06.399Z,13.90
2018-10-19T20:42:34.817Z,13.90
2018-10-19T20:45:03.637Z,13.90
2018-10-19T20:47:32.049Z,13.90
2018-10-19T20:50:00.479Z,13.80
2018-10-19T20:52:28.866Z,13.80
2018-10-19T20:54:57.321Z,13.80
2018-10-19T20:57:25.918Z,13.80
2018-10-19T20:59:54.308Z,13.80
2018-10-19T21:02:23.263Z,13.80
2018-10-19T21:04:51.649Z,13.80
2018-10-19T21:07:20.205Z,13.70
2018-10-19T21:09:48.822Z,13.60
2018-10-19T21:12:17.290Z,13.60
2018-10-19T21:14:45.817Z,13.50
2018-10-19T21:17:14.897Z,13.50
2018-10-19T21:19:43.259Z,13.40
2018-10-19T21:22:11.630Z,13.40
2018-10-19T21:24:40.061Z,13.30
2018-10-19T21:27:08.497Z,13.30
2018-10-19T21:29:36.891Z,13.20
2018-10-19T21:32:05.774Z,13.20
2018-10-19T21:34:34.433Z,13.10
2018-10-19T21:37:02.811Z,13.00
2018-10-19T21:39:31.482Z,13.00
2018-10-19T21:41:59.884Z,13.00
2018-10-19T21:44:28.242Z,12.90
2018-10-19T21:46:56.667Z,12.80
2018-10-19T21:49:25.244Z,12.70
2018-10-19T21:51:54.011Z,12.60
2018-10-19T21:54:22.966Z,12.40
2018-10-19T21:56:51.345Z,12.30
2018-10-19T21:59:19.725Z,12.10
2018-10-19T22:01:48.128Z,12.00
2018-10-19T22:04:17.119Z,12.00
2018-10-19T22:06:45.502Z,11.80
2018-10-19T22:09:14.191Z,11.80
2018-10-19T22:11:42.994Z,11.80
2018-10-19T22:14:11.772Z,11.70
2018-10-19T22:16:40.888Z,11.70
2018-10-19T22:19:10.227Z,11.70
2018-10-19T22:21:39.261Z,11.70
2018-10-19T22:24:08.519Z,11.80
2018-10-19T22:26:36.905Z,11.90
2018-10-19T22:29:05.680Z,11.90
2018-10-19T22:31:34.234Z,11.80
2018-10-19T22:34:02.636Z,11.80
2018-10-19T22:36:31.298Z,11.80
2018-10-19T22:39:00.194Z,11.80
2018-10-19T22:41:28.585Z,11.70
2018-10-19T22:43:57.293Z,11.50
2018-10-19T22:46:25.673Z,11.40
2018-10-19T22:48:54.100Z,11.30
2018-10-19T22:51:22.443Z,11.30
2018-10-19T22:53:50.926Z,11.30
2018-10-19T22:56:19.290Z,11.30
2018-10-19T22:58:47.658Z,11.30
2018-10-19T23:01:16.410Z,11.30
2018-10-19T23:03:44.719Z,11.30
2018-10-19T23:06:13.111Z,11.20
2018-10-19T23:08:41.499Z,11.20
2018-10-19T23:11:09.940Z,11.10
2018-10-19T23:13:38.534Z,11.00
2018-10-19T23:16:07.222Z,11.00
2018-10-19T23:18:35.590Z,10.90
2018-10-19T23:21:03.988Z,10.80
2018-10-19T23:23:32.380Z,10.70
2018-10-19T23:26:00.772Z,10.70
2018-10-19T23:28:29.360Z,10.60
2018-10-19T23:30:57.817Z,10.50
2018-10-19T23:33:26.266Z,10.40
2018-10-19T23:35:54.639Z,10.40
2018-10-19T23:38:23.535Z,10.30
2018-10-19T23:40:51.926Z,10.20
2018-10-19T23:43:20.566Z,10.10
2018-10-19T23:45:48.988Z,10.20
2018-10-19T23:48:17.367Z,10.10
2018-10-19T23:50:46.061Z,10.00
2018-10-19T23:53:14.749Z,9.90
2018-10-19T23:55:43.055Z,9.90
2018-10-19T23:58:11.765Z,9.80
